Current Conditions
Overcast
Conditions



Pressure
29.54 (inHG) - 1000.32 (mb)
Visibility

9.9 (miles) - 16.0 (km)
   Temperature
41  °F
Temperature
25  °F
Dewpoint
53  %
 Humidity
   Wind Speed
12  mph
10  kts
19  km/h
5.4  m/s
   Wind Direction
N
45°
E
90°
135°
S
180°
225°
W
270°
315°
 250°

West South
West
   Airport Data
KMHT
Manchester-Boston Regional Airport
Metar :KMHT 180253Z 25010KT 10SM OVC046 05/M04 A2954 RMK AO2 SLP021 T00501044 51018
Sun 17th January 21:53 pm
   Raw Metar Info
Raw METAR is the most common format in the world for the transmission of observational weather data. It is highly standardized through the International Civil Aviation Organization (ICAO), which allows it to be understood throughout most of the world.
   API Info
Data Provided by
https://www.checkwx.com/weather/KMHT

Aviation Weather providing METAR, TAF, AIRMET, SIGMET and OUTLOOK Weather Reports
   © Info
CSS/SVG/PHP scripts were developed by weather34.com for use in the weather34 template © 2015-2021

Guide Info provided by Metar-Wikipedia